Time;durP1;ratioP1;P1;durP2;ratioP2;P2;SDS_P1;SDS_P2;PMS_P1;PMS_P2;Temp;Humidity;BMP_temperature;BMP_pressure;BME280_temperature;BME280_humidity;BME280_pressure;Samples;Min_cycle;Max_cycle;Signal;HPM_P1;HPM_P2
2023/05/23 00:00:00;;;;;;;19.50;15.07;;;18.30;99.90;;;;;;5010596;28;20045;-65
2023/05/23 00:02:27;;;;;;;16.23;14.23;;;18.30;99.90;;;;;;4994126;28;20038;-67
2023/05/23 00:04:57;;;;;;;17.25;14.07;;;18.30;99.90;;;;;;5011318;28;20041;-67
2023/05/23 00:07:25;;;;;;;16.70;14.02;;;18.20;99.90;;;;;;5010516;28;20041;-67
2023/05/23 00:09:52;;;;;;;16.50;13.60;;;18.30;99.90;;;;;;5010571;28;20501;-67
2023/05/23 00:12:21;;;;;;;16.40;14.15;;;18.30;99.90;;;;;;5009970;28;20413;-67
2023/05/23 00:14:49;;;;;;;17.70;13.45;;;18.20;99.90;;;;;;5010799;28;20041;-67
2023/05/23 00:17:16;;;;;;;15.32;13.73;;;18.20;99.90;;;;;;5010392;28;20070;-67
2023/05/23 00:19:44;;;;;;;16.73;13.48;;;18.20;99.90;;;;;;5010325;28;20421;-67
2023/05/23 00:22:12;;;;;;;17.67;14.27;;;18.20;99.90;;;;;;5010273;28;20129;-67
2023/05/23 00:24:39;;;;;;;16.08;13.20;;;18.20;99.90;;;;;;5010840;28;20108;-66
2023/05/23 00:27:06;;;;;;;15.05;13.52;;;18.10;99.90;;;;;;5010036;28;20536;-67
2023/05/23 00:29:33;;;;;;;15.52;13.60;;;18.20;99.90;;;;;;5010360;28;20540;-67
2023/05/23 00:32:01;;;;;;;16.02;13.45;;;18.10;99.90;;;;;;4992688;28;20070;-67
2023/05/23 00:34:28;;;;;;;15.30;13.68;;;18.10;99.90;;;;;;4993441;28;20422;-66
2023/05/23 00:36:57;;;;;;;15.68;13.55;;;18.10;99.90;;;;;;4993475;28;20118;-66
2023/05/23 00:39:24;;;;;;;15.95;14.25;;;18.10;99.90;;;;;;5011046;28;20521;-67
2023/05/23 00:41:51;;;;;;;21.83;13.80;;;18.00;99.90;;;;;;5011209;28;20123;-66
2023/05/23 00:44:20;;;;;;;14.55;12.98;;;17.90;99.90;;;;;;4977274;28;20049;-66
2023/05/23 00:46:55;;;;;;;14.55;12.95;;;17.90;99.90;;;;;;4997657;28;20441;-66
2023/05/23 00:49:26;;;;;;;15.20;13.35;;;17.90;99.90;;;;;;5006198;28;20409;-67
2023/05/23 00:51:54;;;;;;;16.90;13.73;;;17.90;99.90;;;;;;5012899;28;20049;-67
2023/05/23 00:54:29;;;;;;;14.80;12.85;;;17.80;99.90;;;;;;4975355;28;20042;-67
2023/05/23 00:56:57;;;;;;;16.00;13.43;;;17.80;99.90;;;;;;4994562;28;20042;-67
2023/05/23 00:59:26;;;;;;;24.00;13.93;;;17.80;99.90;;;;;;5001776;28;20103;-67
2023/05/23 01:01:55;;;;;;;20.65;13.10;;;17.80;99.90;;;;;;5012262;28;20532;-66
2023/05/23 01:04:25;;;;;;;14.88;13.00;;;17.70;99.90;;;;;;5004575;28;20046;-67
2023/05/23 01:06:54;;;;;;;15.30;13.70;;;17.70;99.90;;;;;;5013554;28;20607;-67
2023/05/23 01:09:24;;;;;;;16.25;13.32;;;17.70;99.90;;;;;;5008886;28;20052;-66
2023/05/23 01:11:57;;;;;;;15.70;14.05;;;17.60;99.90;;;;;;5015153;28;20455;-67
2023/05/23 01:14:39;;;;;;;15.80;13.45;;;17.60;99.90;;;;;;5002094;28;20042;-67
2023/05/23 01:17:40;;;;;;;17.85;13.77;;;17.60;99.90;;;;;;5005958;28;20098;-67
2023/05/23 01:20:16;;;;;;;16.15;13.60;;;17.50;99.90;;;;;;4973450;28;20057;-67
2023/05/23 01:23:01;;;;;;;18.45;13.65;;;17.50;99.90;;;;;;5013096;28;20528;-66
2023/05/23 01:25:48;;;;;;;15.85;14.15;;;17.50;99.90;;;;;;4993098;28;20204;-67
2023/05/23 01:28:18;;;;;;;15.15;13.45;;;17.50;99.90;;;;;;5015504;28;20064;-73
2023/05/23 01:30:50;;;;;;;18.38;14.07;;;17.50;99.90;;;;;;5015954;28;20061;-67
2023/05/23 01:33:21;;;;;;;17.67;14.05;;;17.40;99.90;;;;;;5012301;28;20049;-66
2023/05/23 01:35:49;;;;;;;15.65;12.90;;;17.40;99.90;;;;;;5003823;28;20100;-67
2023/05/23 01:38:16;;;;;;;17.92;13.68;;;17.40;99.90;;;;;;5012617;28;20049;-67
2023/05/23 01:40:44;;;;;;;16.83;13.32;;;17.40;99.90;;;;;;5013738;28;20045;-67
2023/05/23 01:43:11;;;;;;;16.58;13.68;;;17.40;99.90;;;;;;5010627;28;20053;-66
2023/05/23 01:45:39;;;;;;;15.35;13.13;;;17.40;99.90;;;;;;5011149;28;20056;-66
2023/05/23 01:48:08;;;;;;;19.75;13.77;;;17.40;99.90;;;;;;4993690;28;20494;-67
2023/05/23 01:50:36;;;;;;;15.98;14.00;;;17.30;99.90;;;;;;5001313;28;20055;-67
2023/05/23 01:53:04;;;;;;;16.45;14.63;;;17.40;99.90;;;;;;5022217;28;20120;-67
2023/05/23 01:55:32;;;;;;;14.77;13.20;;;17.40;99.90;;;;;;5001459;28;20046;-66
2023/05/23 01:58:00;;;;;;;15.65;13.77;;;17.40;99.90;;;;;;4997704;28;20073;-67
2023/05/23 02:00:28;;;;;;;15.07;12.93;;;17.50;99.90;;;;;;4996557;28;20038;-66
2023/05/23 02:02:57;;;;;;;15.23;13.25;;;17.40;99.90;;;;;;5011567;28;20037;-67
2023/05/23 02:05:24;;;;;;;15.52;13.48;;;17.40;99.90;;;;;;5002557;28;20310;-67
2023/05/23 02:07:52;;;;;;;18.05;12.90;;;17.50;99.90;;;;;;5010599;28;20049;-67
2023/05/23 02:10:19;;;;;;;17.75;13.93;;;17.50;99.90;;;;;;5021810;28;20115;-67
2023/05/23 02:12:47;;;;;;;15.75;13.63;;;17.50;99.90;;;;;;5011504;28;20057;-68
2023/05/23 02:15:16;;;;;;;19.52;13.77;;;17.40;99.90;;;;;;5018228;28;20096;-66
2023/05/23 02:17:43;;;;;;;14.88;13.25;;;17.30;99.90;;;;;;5012968;28;20076;-66
2023/05/23 02:20:11;;;;;;;16.05;12.52;;;17.30;99.90;;;;;;5010341;28;20328;-66
2023/05/23 02:22:38;;;;;;;15.35;13.07;;;17.20;99.90;;;;;;5003870;28;20045;-67
2023/05/23 02:25:06;;;;;;;15.25;13.07;;;17.20;99.90;;;;;;4996818;28;20054;-67
2023/05/23 02:27:34;;;;;;;17.67;14.73;;;17.20;99.90;;;;;;4988192;28;20137;-66
2023/05/23 02:30:01;;;;;;;17.05;14.25;;;17.10;99.90;;;;;;5018955;28;20064;-67
2023/05/23 02:32:31;;;;;;;17.75;14.00;;;17.10;99.90;;;;;;5007738;28;20100;-67
2023/05/23 02:34:58;;;;;;;18.35;14.20;;;17.00;99.90;;;;;;5001404;28;20049;-66
2023/05/23 02:37:25;;;;;;;16.92;14.02;;;17.00;99.90;;;;;;5001100;28;20405;-67
2023/05/23 02:39:53;;;;;;;19.35;14.13;;;17.00;99.90;;;;;;4975129;28;20064;-67
2023/05/23 02:42:21;;;;;;;17.48;13.38;;;17.00;99.90;;;;;;4991219;28;20041;-67
2023/05/23 02:44:49;;;;;;;16.95;14.07;;;16.90;99.90;;;;;;5001233;28;20053;-67
2023/05/23 02:47:17;;;;;;;17.67;13.88;;;16.90;99.90;;;;;;4998517;28;20053;-66
2023/05/23 02:49:45;;;;;;;19.15;14.00;;;16.90;99.90;;;;;;5010952;28;20135;-67
2023/05/23 02:52:13;;;;;;;15.75;14.05;;;16.90;99.90;;;;;;4980915;28;20125;-67
2023/05/23 02:54:40;;;;;;;17.25;14.38;;;16.80;99.90;;;;;;4980184;28;20073;-67
2023/05/23 02:57:07;;;;;;;16.10;14.38;;;16.80;99.90;;;;;;4987303;28;20125;-67
2023/05/23 02:59:37;;;;;;;18.00;14.50;;;16.80;99.90;;;;;;4998247;28;20107;-67
2023/05/23 03:02:05;;;;;;;17.98;14.10;;;16.70;99.90;;;;;;5006858;28;20108;-67
2023/05/23 03:04:32;;;;;;;16.48;13.15;;;16.70;99.90;;;;;;5011036;28;20133;-67
2023/05/23 03:06:59;;;;;;;20.65;15.32;;;16.70;99.90;;;;;;4995465;28;20057;-68
2023/05/23 03:09:27;;;;;;;19.25;15.07;;;16.60;99.90;;;;;;5009066;28;20445;-68
2023/05/23 03:11:54;;;;;;;17.50;14.18;;;16.60;99.90;;;;;;4995380;28;20050;-67
2023/05/23 03:14:22;;;;;;;16.05;14.38;;;16.60;99.90;;;;;;4973862;28;20057;-68
2023/05/23 03:16:51;;;;;;;17.35;14.57;;;16.50;99.90;;;;;;4996908;28;20068;-67
2023/05/23 03:19:18;;;;;;;16.42;14.70;;;16.50;99.90;;;;;;5021173;28;20041;-67
2023/05/23 03:21:46;;;;;;;15.23;13.30;;;16.50;99.90;;;;;;5001320;28;20042;-67
2023/05/23 03:24:14;;;;;;;17.20;14.45;;;16.50;99.90;;;;;;5012527;28;20525;-67
2023/05/23 03:26:43;;;;;;;17.92;15.43;;;16.40;99.90;;;;;;5008651;28;20065;-67
2023/05/23 03:29:11;;;;;;;17.98;14.73;;;16.40;99.90;;;;;;5006099;28;20172;-67
2023/05/23 03:31:39;;;;;;;18.52;14.85;;;16.40;99.90;;;;;;4993282;28;20042;-67
2023/05/23 03:34:07;;;;;;;17.13;14.40;;;16.40;99.90;;;;;;5006487;28;20060;-67
2023/05/23 03:36:38;;;;;;;17.42;14.10;;;16.40;99.90;;;;;;4979620;28;20041;-68
2023/05/23 03:39:05;;;;;;;21.08;15.25;;;16.40;99.90;;;;;;5001659;28;20038;-67
2023/05/23 03:41:33;;;;;;;19.92;13.52;;;16.40;99.90;;;;;;4996112;28;20125;-67
2023/05/23 03:44:02;;;;;;;18.50;14.57;;;16.40;99.90;;;;;;5010535;28;20046;-67
2023/05/23 03:46:30;;;;;;;23.50;14.77;;;16.40;99.90;;;;;;4999397;28;20045;-67
2023/05/23 03:48:58;;;;;;;20.70;14.98;;;16.40;99.90;;;;;;5005248;28;20077;-68
2023/05/23 03:51:27;;;;;;;20.05;14.82;;;16.40;99.90;;;;;;4996750;28;20041;-66
2023/05/23 03:53:54;;;;;;;20.60;14.23;;;16.40;99.90;;;;;;5005764;28;20092;-67
2023/05/23 03:56:22;;;;;;;20.25;14.95;;;16.40;99.90;;;;;;5000645;28;20045;-66
2023/05/23 03:58:49;;;;;;;19.55;14.40;;;16.40;99.90;;;;;;5009582;28;20103;-65
2023/05/23 04:01:17;;;;;;;21.48;14.23;;;16.40;99.90;;;;;;4982979;28;20111;-65
2023/05/23 04:03:46;;;;;;;17.90;15.02;;;16.50;99.90;;;;;;4999591;28;20049;-66
2023/05/23 04:06:16;;;;;;;19.63;14.52;;;16.50;99.90;;;;;;5008919;28;20042;-66
2023/05/23 04:08:45;;;;;;;18.27;14.45;;;16.50;99.90;;;;;;4994083;28;20050;-66
2023/05/23 04:11:13;;;;;;;17.23;14.40;;;16.50;99.90;;;;;;4977079;28;20071;-66
2023/05/23 04:13:41;;;;;;;17.92;14.15;;;16.50;99.90;;;;;;5008070;28;20045;-66
2023/05/23 04:16:10;;;;;;;18.30;14.30;;;16.50;99.90;;;;;;5006085;28;20053;-66
2023/05/23 04:18:37;;;;;;;19.48;13.30;;;16.50;99.90;;;;;;4997611;28;20050;-66
2023/05/23 04:21:07;;;;;;;17.77;13.90;;;16.60;99.90;;;;;;4991225;28;20053;-66
2023/05/23 04:23:39;;;;;;;18.42;14.27;;;16.70;99.90;;;;;;4981851;28;20041;-67
2023/05/23 04:26:06;;;;;;;17.48;14.27;;;16.70;99.90;;;;;;4993650;28;20583;-66
2023/05/23 04:28:39;;;;;;;17.48;14.35;;;16.70;99.90;;;;;;4992230;28;20501;-66
2023/05/23 04:31:07;;;;;;;16.35;13.88;;;16.80;99.90;;;;;;4999879;28;20556;-65
2023/05/23 04:33:36;;;;;;;18.00;14.25;;;16.90;99.90;;;;;;4997489;28;20053;-67
2023/05/23 04:36:07;;;;;;;21.27;13.43;;;16.90;99.90;;;;;;4990978;28;20177;-67
2023/05/23 04:38:39;;;;;;;17.08;13.93;;;16.90;99.90;;;;;;4996591;28;20112;-67
2023/05/23 04:41:10;;;;;;;19.50;14.82;;;16.80;99.90;;;;;;4989743;28;20493;-67
2023/05/23 04:44:08;;;;;;;19.67;13.27;;;16.80;99.90;;;;;;4951560;28;20051;-67
2023/05/23 04:46:40;;;;;;;18.70;14.60;;;16.80;99.90;;;;;;4960423;28;20071;-67
2023/05/23 04:49:13;;;;;;;16.60;13.57;;;16.90;99.90;;;;;;4940126;28;20497;-67
2023/05/23 04:51:40;;;;;;;18.02;14.27;;;16.80;99.90;;;;;;4949105;28;20054;-67
2023/05/23 04:54:15;;;;;;;18.23;13.73;;;16.80;99.90;;;;;;4949011;28;20059;-68
2023/05/23 04:56:43;;;;;;;19.00;14.18;;;16.80;99.90;;;;;;4927949;29;20460;-65
2023/05/23 04:59:10;;;;;;;18.05;13.38;;;16.80;99.90;;;;;;4931538;29;20626;-66
2023/05/23 05:01:40;;;;;;;19.45;13.73;;;16.90;99.90;;;;;;4949599;28;20189;-68
2023/05/23 05:04:08;;;;;;;19.87;14.60;;;16.90;99.90;;;;;;4949824;28;20047;-67
2023/05/23 05:06:40;;;;;;;18.10;13.77;;;17.00;99.90;;;;;;4939790;29;20055;-67
2023/05/23 05:09:08;;;;;;;16.92;14.05;;;17.10;99.90;;;;;;4950332;28;20047;-66
2023/05/23 05:11:36;;;;;;;18.10;14.80;;;17.10;99.90;;;;;;4949516;28;20043;-66
2023/05/23 05:14:03;;;;;;;16.92;14.02;;;17.20;99.90;;;;;;4946226;28;20063;-67
2023/05/23 05:16:30;;;;;;;17.17;13.30;;;17.20;99.90;;;;;;4933218;29;20046;-67
2023/05/23 05:18:59;;;;;;;19.05;13.85;;;17.20;99.90;;;;;;4948667;28;20455;-64
2023/05/23 05:21:27;;;;;;;19.65;14.50;;;17.20;99.90;;;;;;4999833;28;20073;-67
2023/05/23 05:23:54;;;;;;;16.63;14.05;;;17.30;99.90;;;;;;4995863;28;20034;-67
2023/05/23 05:26:22;;;;;;;18.77;13.88;;;17.40;99.90;;;;;;5009487;28;20494;-68
2023/05/23 05:28:50;;;;;;;19.02;14.00;;;17.60;99.90;;;;;;4991626;28;20041;-67
2023/05/23 05:31:18;;;;;;;22.65;13.32;;;17.60;99.90;;;;;;4994640;28;20054;-67
2023/05/23 05:33:46;;;;;;;17.02;13.00;;;17.60;99.90;;;;;;4995537;28;20494;-67
2023/05/23 05:36:15;;;;;;;16.88;13.65;;;17.60;99.90;;;;;;4972717;28;20121;-66
2023/05/23 05:38:44;;;;;;;17.40;14.18;;;17.50;99.90;;;;;;4991874;28;20517;-66
2023/05/23 05:41:12;;;;;;;19.58;14.30;;;17.30;99.90;;;;;;4984949;28;20050;-67
2023/05/23 05:43:45;;;;;;;18.60;14.43;;;17.40;99.90;;;;;;4995942;28;20030;-66
2023/05/23 05:46:13;;;;;;;17.55;14.32;;;17.60;99.90;;;;;;4997637;28;20129;-66
2023/05/23 05:48:41;;;;;;;18.40;14.52;;;17.70;99.90;;;;;;4993966;28;20485;-68
2023/05/23 05:51:11;;;;;;;20.77;14.30;;;17.60;99.90;;;;;;4983538;28;20096;-68
2023/05/23 05:53:40;;;;;;;21.63;13.88;;;17.70;99.90;;;;;;4979184;28;20054;-65
2023/05/23 05:56:08;;;;;;;18.88;14.27;;;17.80;99.90;;;;;;5012961;28;20493;-66
2023/05/23 05:58:37;;;;;;;18.45;13.30;;;17.70;99.90;;;;;;4995785;28;20045;-66
2023/05/23 06:01:07;;;;;;;20.17;14.13;;;17.90;99.90;;;;;;4996146;28;20056;-67
2023/05/23 06:03:34;;;;;;;18.48;13.88;;;18.00;99.90;;;;;;4978025;28;20081;-67
2023/05/23 06:06:02;;;;;;;18.50;13.63;;;18.10;99.90;;;;;;4982038;28;20725;-69
2023/05/23 06:08:29;;;;;;;18.88;13.45;;;17.90;99.90;;;;;;4994803;28;20053;-68
2023/05/23 06:10:57;;;;;;;15.55;13.00;;;18.10;99.90;;;;;;5009307;28;20145;-67
2023/05/23 06:13:25;;;;;;;20.58;14.43;;;18.20;99.90;;;;;;5005768;28;20458;-66
2023/05/23 06:15:53;;;;;;;18.77;13.30;;;18.30;99.90;;;;;;4993206;28;20046;-67
2023/05/23 06:18:22;;;;;;;17.77;14.65;;;18.50;99.90;;;;;;4993143;28;20045;-67
2023/05/23 06:20:50;;;;;;;18.20;13.18;;;18.50;99.90;;;;;;4998189;28;20037;-68
2023/05/23 06:23:20;;;;;;;18.00;13.43;;;18.60;99.90;;;;;;4984809;28;20466;-69
2023/05/23 06:25:47;;;;;;;17.30;14.27;;;18.60;99.90;;;;;;4997509;28;20093;-68
2023/05/23 06:28:15;;;;;;;18.23;14.10;;;18.70;99.90;;;;;;5010650;28;20042;-67
2023/05/23 06:30:44;;;;;;;16.35;13.02;;;18.70;99.90;;;;;;4983855;28;20058;-67
2023/05/23 06:33:12;;;;;;;21.02;13.95;;;18.80;99.90;;;;;;4994397;28;20046;-67
2023/05/23 06:35:41;;;;;;;18.40;13.73;;;19.00;99.90;;;;;;4995734;28;20060;-66
2023/05/23 06:38:09;;;;;;;18.73;13.73;;;19.10;99.90;;;;;;5014245;28;20581;-65
2023/05/23 06:40:36;;;;;;;17.75;13.38;;;19.10;99.90;;;;;;4994537;28;20038;-66
2023/05/23 06:43:04;;;;;;;21.25;14.10;;;19.30;99.90;;;;;;4989859;28;20095;-67
2023/05/23 06:45:49;;;;;;;16.58;13.60;;;19.30;99.90;;;;;;4977110;28;20116;-68
2023/05/23 06:48:16;;;;;;;18.57;14.27;;;19.50;99.90;;;;;;4994889;28;20136;-66
2023/05/23 06:50:45;;;;;;;17.90;13.98;;;19.60;99.90;;;;;;4991966;28;20042;-67
2023/05/23 06:53:13;;;;;;;17.50;13.57;;;19.70;99.90;;;;;;4983322;28;20133;-69
2023/05/23 06:55:45;;;;;;;17.33;14.18;;;19.70;99.90;;;;;;4995683;28;20120;-67
2023/05/23 06:58:16;;;;;;;21.23;14.52;;;19.70;99.90;;;;;;5017591;28;20101;-68
2023/05/23 07:00:43;;;;;;;19.25;15.32;;;19.60;99.90;;;;;;4978499;28;20052;-69
2023/05/23 07:03:22;;;;;;;18.63;15.20;;;19.60;99.90;;;;;;5007569;28;20034;-69
2023/05/23 07:05:50;;;;;;;16.25;13.77;;;19.70;99.90;;;;;;5004024;28;20414;-67
2023/05/23 07:08:19;;;;;;;20.00;16.33;;;19.60;99.90;;;;;;5006210;28;20050;-68
2023/05/23 07:11:12;;;;;;;18.67;14.80;;;19.50;99.90;;;;;;4995822;28;20438;-67
2023/05/23 07:13:43;;;;;;;17.02;13.52;;;19.60;99.90;;;;;;4956115;28;20389;-69
2023/05/23 07:16:18;;;;;;;19.00;14.52;;;19.60;99.90;;;;;;4989516;28;20046;-68
2023/05/23 07:18:55;;;;;;;16.27;13.07;;;19.70;99.90;;;;;;4988238;28;20439;-68
2023/05/23 07:21:23;;;;;;;19.15;14.75;;;19.90;99.90;;;;;;5000201;28;20409;-68
2023/05/23 07:23:50;;;;;;;19.30;14.95;;;20.00;99.90;;;;;;4985779;28;20037;-68
2023/05/23 07:26:18;;;;;;;16.70;13.80;;;20.20;99.90;;;;;;4994847;28;20041;-67
2023/05/23 07:28:50;;;;;;;18.63;14.02;;;20.20;99.90;;;;;;4993522;28;20561;-66
2023/05/23 07:31:18;;;;;;;15.27;13.52;;;19.90;99.90;;;;;;5018987;28;20498;-67
2023/05/23 07:33:45;;;;;;;16.38;13.70;;;19.80;99.90;;;;;;4999214;28;20054;-68
2023/05/23 07:36:21;;;;;;;16.40;12.85;;;19.70;99.90;;;;;;4999878;28;20096;-67
2023/05/23 07:38:49;;;;;;;16.27;13.55;;;19.80;99.90;;;;;;4991681;28;20046;-67
2023/05/23 07:41:16;;;;;;;17.98;14.20;;;19.60;99.90;;;;;;5009303;28;20042;-68
2023/05/23 07:43:44;;;;;;;16.13;14.27;;;19.80;99.90;;;;;;5028063;22;20520;-41
2023/05/23 07:46:11;;;;;;;16.73;13.32;;;19.60;99.90;;;;;;5053969;28;20053;-41
2023/05/23 07:48:39;;;;;;;20.20;14.20;;;19.60;99.90;;;;;;5033894;28;20440;-43
2023/05/23 07:51:06;;;;;;;15.82;13.40;;;19.60;99.90;;;;;;5035811;28;20525;-40
2023/05/23 07:53:33;;;;;;;17.30;14.57;;;19.80;99.90;;;;;;5053609;28;20045;-39
2023/05/23 07:56:02;;;;;;;16.77;13.50;;;19.80;99.90;;;;;;5033977;28;20048;-39
2023/05/23 07:58:35;;;;;;;19.48;14.50;;;19.80;99.90;;;;;;5058261;22;20049;-45
2023/05/23 08:01:02;;;;;;;17.15;14.43;;;19.80;99.90;;;;;;5044275;28;20048;-47
2023/05/23 08:03:56;;;;;;;17.33;13.80;;;19.80;99.90;;;;;;5047383;28;20125;-46
2023/05/23 08:06:33;;;;;;;17.33;13.23;;;19.80;99.90;;;;;;5042598;28;20490;-49
2023/05/23 08:09:05;;;;;;;21.27;14.38;;;20.10;99.90;;;;;;5066955;28;20256;-49
2023/05/23 08:11:55;;;;;;;16.38;14.32;;;20.50;99.90;;;;;;5071761;28;20528;-49
2023/05/23 08:14:24;;;;;;;20.55;15.05;;;20.70;99.90;;;;;;5059102;28;20115;-47
2023/05/23 08:17:13;;;;;;;18.33;14.57;;;20.80;99.90;;;;;;5067948;28;20475;-46
2023/05/23 08:19:42;;;;;;;17.45;14.55;;;20.70;99.90;;;;;;5058721;28;20032;-49
2023/05/23 08:22:10;;;;;;;14.88;13.15;;;20.80;99.90;;;;;;5066637;28;20086;-50
2023/05/23 08:24:37;;;;;;;15.13;13.48;;;20.80;99.90;;;;;;5055755;28;20090;-46
2023/05/23 08:27:06;;;;;;;21.42;14.25;;;21.00;99.90;;;;;;5067554;28;20040;-48
2023/05/23 08:29:36;;;;;;;16.98;13.80;;;21.10;99.90;;;;;;5063562;28;20046;-49
2023/05/23 08:32:04;;;;;;;16.83;12.98;;;20.90;99.90;;;;;;5062329;28;20068;-45
2023/05/23 08:34:32;;;;;;;20.80;12.27;;;21.10;99.90;;;;;;5064681;28;20056;-46
2023/05/23 08:37:00;;;;;;;14.02;12.52;;;21.00;99.90;;;;;;5059051;28;20068;-47
2023/05/23 08:39:27;;;;;;;15.77;12.25;;;20.90;99.90;;;;;;5065226;28;20117;-47
2023/05/23 08:42:10;;;;;;;15.88;13.48;;;20.90;99.90;;;;;;5065633;28;20047;-46
2023/05/23 08:44:39;;;;;;;18.27;12.68;;;20.90;99.90;;;;;;5073535;28;20041;-43
2023/05/23 08:47:07;;;;;;;13.32;11.63;;;21.20;99.90;;;;;;5067706;28;20045;-48
2023/05/23 08:49:53;;;;;;;15.73;12.20;;;21.10;99.90;;;;;;5059859;28;20095;-45
2023/05/23 08:52:26;;;;;;;17.17;11.90;;;21.50;99.90;;;;;;5062100;28;20520;-44
2023/05/23 08:54:55;;;;;;;16.10;12.73;;;21.50;99.90;;;;;;5060981;28;20036;-48
2023/05/23 08:57:23;;;;;;;16.67;12.88;;;21.10;99.90;;;;;;5065392;28;20552;-44
2023/05/23 08:59:56;;;;;;;14.95;11.35;;;21.10;99.90;;;;;;5066689;28;20598;-45
2023/05/23 09:02:24;;;;;;;13.48;12.07;;;21.00;99.90;;;;;;5054451;28;20139;-47
2023/05/23 09:04:59;;;;;;;16.17;12.23;;;20.90;99.90;;;;;;5066937;28;20064;-46
2023/05/23 09:07:28;;;;;;;13.48;11.10;;;21.00;99.90;;;;;;5065526;28;20508;-48
2023/05/23 09:09:57;;;;;;;15.57;11.45;;;21.10;99.90;;;;;;5071249;28;20082;-47
2023/05/23 09:12:24;;;;;;;14.32;11.68;;;21.10;99.90;;;;;;5061394;28;20113;-45
2023/05/23 09:14:53;;;;;;;15.30;11.13;;;21.10;99.90;;;;;;5063611;28;20040;-49
2023/05/23 09:17:23;;;;;;;14.90;12.35;;;21.30;99.90;;;;;;5056969;28;20048;-44
2023/05/23 09:19:51;;;;;;;12.63;11.32;;;21.60;99.90;;;;;;5064619;28;20037;-47
2023/05/23 09:22:47;;;;;;;12.77;11.17;;;21.50;99.90;;;;;;5061252;28;20043;-44
2023/05/23 09:25:16;;;;;;;12.40;11.00;;;21.70;99.90;;;;;;5069999;28;20040;-49
2023/05/23 09:27:45;;;;;;;13.57;11.60;;;21.20;99.90;;;;;;5068838;28;20043;-46
2023/05/23 09:30:17;;;;;;;13.80;11.10;;;20.90;99.90;;;;;;5070156;28;20523;-49
2023/05/23 09:32:58;;;;;;;16.45;11.25;;;21.00;99.90;;;;;;5075584;28;20151;-50
2023/05/23 09:35:31;;;;;;;15.80;11.73;;;21.10;99.90;;;;;;5064032;28;20044;-48
2023/05/23 09:37:59;;;;;;;14.45;11.77;;;21.50;99.90;;;;;;5064827;28;20044;-47
2023/05/23 09:40:31;;;;;;;13.15;11.00;;;21.40;99.90;;;;;;5070948;28;20039;-47
2023/05/23 09:43:03;;;;;;;14.48;11.40;;;21.60;99.90;;;;;;5065752;28;20519;-50
2023/05/23 09:45:31;;;;;;;14.52;11.85;;;21.70;99.90;;;;;;5061537;28;20155;-45
2023/05/23 09:48:00;;;;;;;14.23;12.00;;;21.80;99.90;;;;;;5069504;28;20052;-45
2023/05/23 09:50:32;;;;;;;13.05;11.27;;;21.60;99.90;;;;;;5061885;28;20127;-45
2023/05/23 09:53:01;;;;;;;15.15;11.50;;;21.40;99.90;;;;;;5066225;28;20033;-49
2023/05/23 09:55:28;;;;;;;13.77;11.85;;;21.30;99.90;;;;;;5071667;28;20049;-45
2023/05/23 09:57:57;;;;;;;14.32;12.43;;;21.20;99.90;;;;;;5070279;28;20101;-49
2023/05/23 10:00:27;;;;;;;17.17;12.27;;;21.10;99.90;;;;;;5063591;28;20192;-47
2023/05/23 10:03:15;;;;;;;14.15;12.65;;;21.60;99.90;;;;;;5070836;28;20096;-50
2023/05/23 10:05:47;;;;;;;13.07;11.63;;;21.80;99.90;;;;;;5065481;28;20049;-49
2023/05/23 10:08:28;;;;;;;14.18;11.38;;;21.30;99.90;;;;;;5070570;28;20041;-47
2023/05/23 10:11:16;;;;;;;14.52;11.05;;;21.60;99.90;;;;;;5068116;28;20075;-52
2023/05/23 10:13:48;;;;;;;13.27;10.73;;;21.70;99.90;;;;;;5061878;28;20040;-51
2023/05/23 10:16:27;;;;;;;12.65;11.35;;;21.90;99.90;;;;;;5059886;28;20102;-46
2023/05/23 10:19:02;;;;;;;13.10;10.52;;;21.30;99.90;;;;;;5065591;28;20123;-45
2023/05/23 10:21:35;;;;;;;13.77;10.68;;;21.30;99.90;;;;;;5058942;28;20091;-46
2023/05/23 10:24:07;;;;;;;13.55;10.50;;;21.20;99.90;;;;;;5070534;28;20120;-44
2023/05/23 10:26:35;;;;;;;14.90;10.05;;;21.70;99.90;;;;;;5066607;28;20048;-48
2023/05/23 10:29:04;;;;;;;11.20;9.90;;;22.00;99.90;;;;;;5066825;28;20051;-48
2023/05/23 10:31:31;;;;;;;11.73;9.85;;;21.80;99.90;;;;;;5075066;28;20040;-46
2023/05/23 10:34:09;;;;;;;12.77;9.82;;;21.70;99.90;;;;;;5062495;28;20127;-50
2023/05/23 10:36:48;;;;;;;13.35;10.23;;;22.00;99.90;;;;;;5064010;28;20044;-52
2023/05/23 10:39:24;;;;;;;11.23;9.80;;;22.70;99.90;;;;;;5069670;28;20044;-48
2023/05/23 10:41:59;;;;;;;10.23;8.93;;;22.20;99.90;;;;;;5063047;28;20041;-46
2023/05/23 10:44:29;;;;;;;10.38;9.35;;;22.40;99.90;;;;;;5062410;28;20135;-47
2023/05/23 10:47:00;;;;;;;13.40;9.25;;;21.90;99.90;;;;;;5061559;28;20118;-47
2023/05/23 10:49:41;;;;;;;9.98;8.93;;;21.30;99.90;;;;;;5053276;28;20067;-45
2023/05/23 10:52:10;;;;;;;11.07;8.10;;;21.10;99.90;;;;;;5068171;28;20048;-46
2023/05/23 10:54:51;;;;;;;9.68;8.63;;;21.10;99.90;;;;;;5051216;28;20087;-45
2023/05/23 10:57:25;;;;;;;9.73;8.77;;;21.20;99.90;;;;;;5069091;28;20056;-45
2023/05/23 10:59:53;;;;;;;11.85;8.10;;;21.30;99.90;;;;;;5066579;28;20520;-43
2023/05/23 11:02:27;;;;;;;10.43;8.52;;;21.00;99.90;;;;;;5068385;28;20109;-46
2023/05/23 11:05:23;;;;;;;10.35;9.20;;;21.10;99.90;;;;;;5069392;28;20284;-45
2023/05/23 11:08:12;;;;;;;10.20;8.52;;;21.20;99.90;;;;;;5068551;28;20060;-45
2023/05/23 11:11:00;;;;;;;10.25;9.23;;;21.50;99.90;;;;;;5070335;28;20473;-43
2023/05/23 11:13:52;;;;;;;11.32;8.50;;;21.90;99.90;;;;;;5062566;28;20037;-49
2023/05/23 11:16:30;;;;;;;11.10;8.05;;;22.10;99.90;;;;;;5070134;28;20052;-43
2023/05/23 11:19:20;;;;;;;10.18;7.82;;;21.90;99.90;;;;;;5070141;28;20041;-51
2023/05/23 11:22:07;;;;;;;9.38;8.18;;;21.90;99.90;;;;;;5057443;28;20194;-47
2023/05/23 11:24:53;;;;;;;8.82;7.38;;;21.80;99.90;;;;;;5072295;28;20037;-45
2023/05/23 11:27:36;;;;;;;8.73;7.80;;;21.60;99.90;;;;;;5061946;28;20048;-48
2023/05/23 11:30:12;;;;;;;8.30;7.45;;;21.70;99.90;;;;;;5069535;28;20040;-44
2023/05/23 11:32:41;;;;;;;8.95;7.32;;;21.50;99.90;;;;;;5073585;28;20101;-48
2023/05/23 11:35:10;;;;;;;8.52;7.45;;;21.70;99.90;;;;;;5068786;28;20059;-50
2023/05/23 11:37:41;;;;;;;9.30;7.38;;;22.60;99.90;;;;;;5061797;28;20044;-45
2023/05/23 11:40:28;;;;;;;8.40;7.57;;;22.80;99.90;;;;;;5068984;28;20051;-50
2023/05/23 11:42:57;;;;;;;8.77;6.65;;;23.40;99.90;;;;;;5056635;28;20061;-51
2023/05/23 11:45:25;;;;;;;10.05;7.40;;;23.40;99.90;;;;;;5059437;28;20049;-47
2023/05/23 11:47:53;;;;;;;8.93;7.05;;;23.10;99.90;;;;;;5069316;28;20098;-46
2023/05/23 11:50:20;;;;;;;8.05;7.35;;;22.80;99.90;;;;;;5064431;28;20136;-49
2023/05/23 11:52:50;;;;;;;7.68;6.97;;;22.40;99.90;;;;;;5068546;28;20111;-45
2023/05/23 11:55:22;;;;;;;9.00;7.40;;;22.10;99.90;;;;;;5065768;28;20052;-45
2023/05/23 11:57:50;;;;;;;7.60;6.90;;;21.60;99.90;;;;;;5064298;28;20068;-44
2023/05/23 12:00:18;;;;;;;7.75;7.05;;;21.30;99.90;;;;;;5071622;28;20123;-50
2023/05/23 12:02:47;;;;;;;7.35;6.65;;;21.30;99.90;;;;;;5071053;28;20412;-46
2023/05/23 12:05:15;;;;;;;6.82;6.22;;;21.50;99.90;;;;;;5068888;28;20392;-46
2023/05/23 12:07:48;;;;;;;6.70;6.03;;;22.00;99.90;;;;;;5066222;28;20072;-44
2023/05/23 12:10:17;;;;;;;6.40;5.80;;;22.00;99.90;;;;;;5069163;28;20048;-46
2023/05/23 12:12:44;;;;;;;6.68;5.97;;;22.10;99.90;;;;;;5060597;28;20521;-48
2023/05/23 12:15:12;;;;;;;6.22;5.63;;;22.10;99.90;;;;;;5052411;28;20652;-46
2023/05/23 12:17:46;;;;;;;7.35;6.45;;;22.40;99.90;;;;;;5061812;28;20630;-48
2023/05/23 12:20:13;;;;;;;7.25;5.65;;;22.20;99.90;;;;;;5060535;28;20037;-44
2023/05/23 12:22:41;;;;;;;6.60;6.05;;;22.20;99.90;;;;;;5069808;28;20064;-45
2023/05/23 12:25:12;;;;;;;6.70;6.10;;;21.80;99.90;;;;;;5065924;28;20040;-44
2023/05/23 12:27:42;;;;;;;6.53;5.93;;;21.50;99.90;;;;;;5066055;28;20466;-44
2023/05/23 12:30:13;;;;;;;6.50;5.90;;;21.70;99.90;;;;;;5064608;28;20533;-44
2023/05/23 12:32:42;;;;;;;6.65;5.50;;;21.70;99.90;;;;;;5069496;28;20051;-47
2023/05/23 12:35:15;;;;;;;6.50;5.90;;;21.30;99.90;;;;;;5068206;28;20405;-46
2023/05/23 12:37:46;;;;;;;8.82;6.18;;;21.00;99.90;;;;;;5065556;28;20222;-44
2023/05/23 12:40:17;;;;;;;6.78;5.60;;;20.70;99.90;;;;;;5068897;28;20044;-43
2023/05/23 12:42:55;;;;;;;8.15;5.75;;;20.60;99.90;;;;;;5069385;28;20040;-47
2023/05/23 12:45:33;;;;;;;6.65;5.97;;;20.10;99.90;;;;;;5064179;28;20116;-46
2023/05/23 12:48:03;;;;;;;7.70;6.00;;;20.00;99.90;;;;;;5072829;28;20247;-48